Startpagina
METAR-TAF:

METAR-TAF

Vliegvelden :

Flughafen Wien-Schwechat

Wenen, Oostenrijk

breedte: 48-07N, lengte: 016-34E, hoogte: 183 m

Actueel weer

Dit bericht is 21 minuten geleden gemaakt, om 16:50 UTC
Wind 8 kt uit het noordnoordwesten
Temperatuur 7°C
Vochtigheid 42%
Druk 1034 hPa
Zicht 10 km of meer
geen wolken onder 1500 m en geen cumulonimbus

METAR: LOWW 201650Z 33008KT CAVOK 07/M05 Q1034 NOSIG

Tijdstip: 18:11 (17:11 UTC)

Verwachting

Dit bericht is 2 uur en het 56 minuten geleden gemaakt, om 14:15 UTC
Verwachting geldig van 20 om 15 UTC tot 21 om 21 UTC
Wind 12 kt uit het noorden
Zicht 10 km of meer
geen wolken onder 1500 m en geen cumulonimbus
Wijzigt naar
van 20 om 18 UTC tot 20 om 22 UTC
Wind 2 kt uit variabele richting

TAF: LOWW 201415Z 2015/2121 35012KT CAVOK TX13/2114Z TNM02/2105Z BECMG 2018/2022 VRB02KT

Waarnemingen en weersverwachtingen van meer dan 4000 vliegvelden (METAR en TAF).

De beschikbare stations zijn de gele en rode punten op de kaart.

Ga met uw muis naar het station om de naam te zien.

Klik dan om waarnemingen en weersverwachtingen te zien.

kaart wijzigen: klik op de groene knoppen met een zwart kruis om in te zoomen, op de groene knop met een streepje om uit te zoomen of op de groene pijlen voor aangrenzende kaarten.


METAR-TAF: